LEAS/OVD METAR and TAF weather

Enter ICAO airport designator
Station Type Date Time Source
LEAS METAR 2021/04/18 02:30 UTC NOAA

LEAS 180230Z AUTO 14003KT 100V170 CAVOK 05/02 Q1022


Station Type Date Time Source
LEAS Decoded METAR 2021/04/18 02:30 UTC NOAA

Asturias / Aviles, Spain (LEAS) 43-33N 006-02W 130M
Apr 17, 2021 - 10:30 PM EDT / 2021.04.18 0230 UTC
Wind: from the SE (140 degrees) at 3 MPH (3 KT) (direction variable):0
Visibility: greater than 7 mile(s):0
Temperature: 41 F (5 C)
Dew Point: 35 F (2 C)
Relative Humidity: 80%
Pressure (altimeter): 30.18 in. Hg (1022 hPa)
ob: LEAS 180230Z AUTO 14003KT 100V170 CAVOK 05/02 Q1022
cycle: 2

Station Type Date Time Source
LEAS TAF 2021/04/18 03:29 UTC NOAA

TAF LEAS 180200Z 1803/1903 16009KT CAVOK TX16/1814Z TN04/1805Z
TEMPO 1809/1818 08013KT

Example: see airport list